createdAt,value
2022-12-25T00:02:35.780Z,41.40
2022-12-25T00:07:38.297Z,48.53
2022-12-25T00:12:40.768Z,64.20
2022-12-25T00:17:43.348Z,46.42
2022-12-25T00:22:45.795Z,42.40
2022-12-25T00:27:48.249Z,43.40
2022-12-25T00:32:50.735Z,49.53
2022-12-25T00:37:53.132Z,42.75
2022-12-25T00:42:55.557Z,43.17
2022-12-25T00:47:57.983Z,26.43
2022-12-25T00:53:00.412Z,38.88
2022-12-25T00:58:02.831Z,43.43
2022-12-25T01:03:05.265Z,35.33
2022-12-25T01:08:07.796Z,51.28
2022-12-25T01:13:10.246Z,51.90
2022-12-25T01:18:13.054Z,52.42
2022-12-25T01:23:16.041Z,59.03
2022-12-25T01:28:18.536Z,63.83
2022-12-25T01:33:20.949Z,67.03
2022-12-25T01:38:23.525Z,39.57
2022-12-25T01:43:30.901Z,36.15
2022-12-25T01:48:38.299Z,53.97
2022-12-25T01:53:40.786Z,50.00
2022-12-25T01:58:43.406Z,45.67
2022-12-25T02:03:45.868Z,49.30
2022-12-25T02:08:48.470Z,45.30
2022-12-25T02:13:50.933Z,50.27
2022-12-25T02:18:57.132Z,49.30
2022-12-25T02:24:16.668Z,40.42
2022-12-25T02:29:33.216Z,42.03
2022-12-25T02:34:59.676Z,39.55
2022-12-25T02:40:12.095Z,40.83
2022-12-25T02:45:37.455Z,44.30
2022-12-25T02:50:58.547Z,39.78
2022-12-25T02:56:19.719Z,34.77
2022-12-25T03:01:42.588Z,37.17
2022-12-25T03:07:02.373Z,36.23
2022-12-25T03:12:17.645Z,38.45
2022-12-25T03:17:20.074Z,30.50
2022-12-25T03:22:50.029Z,37.77
2022-12-25T03:27:56.066Z,41.63
2022-12-25T03:33:43.982Z,38.47
2022-12-25T03:39:13.351Z,39.17
2022-12-25T03:44:34.441Z,31.80
2022-12-25T03:50:04.019Z,23.67
2022-12-25T03:55:28.426Z,30.17
2022-12-25T04:00:49.951Z,26.43
2022-12-25T04:06:11.099Z,44.08
2022-12-25T04:11:32.284Z,33.38
2022-12-25T04:16:53.358Z,32.60
2022-12-25T04:22:14.390Z,30.48
2022-12-25T04:27:35.507Z,29.80
2022-12-25T04:32:56.537Z,19.13
2022-12-25T04:37:58.924Z,28.08
2022-12-25T04:43:01.291Z,30.27
2022-12-25T04:48:03.801Z,33.00
2022-12-25T04:53:06.229Z,28.83
2022-12-25T04:58:08.835Z,26.30
2022-12-25T05:03:11.321Z,21.80
2022-12-25T05:08:14.211Z,15.87
2022-12-25T05:13:17.048Z,21.20
2022-12-25T05:18:19.513Z,10.87
2022-12-25T05:23:22.649Z,9.88
2022-12-25T05:28:25.179Z,15.35
2022-12-25T05:33:27.699Z,17.00
2022-12-25T05:38:30.200Z,13.80
2022-12-25T05:43:32.833Z,16.17
2022-12-25T05:48:36.975Z,23.08
2022-12-25T05:53:41.911Z,28.17
2022-12-25T05:58:44.430Z,27.37
2022-12-25T06:03:47.400Z,25.95
2022-12-25T06:08:49.984Z,32.60
2022-12-25T06:13:53.449Z,43.08
2022-12-25T06:18:55.874Z,39.45
2022-12-25T06:23:59.921Z,34.53
2022-12-25T06:29:02.421Z,38.65
2022-12-25T06:34:05.247Z,40.03
2022-12-25T06:39:07.679Z,33.97
2022-12-25T06:44:10.118Z,50.17
2022-12-25T06:49:12.546Z,53.37
2022-12-25T06:54:15.004Z,32.90
2022-12-25T06:59:17.839Z,164.73
2022-12-25T07:04:33.046Z,119.88
2022-12-25T07:09:36.039Z,80.50
2022-12-25T07:14:38.540Z,38.27
2022-12-25T07:19:44.896Z,24.23
2022-12-25T07:24:47.640Z,25.03
2022-12-25T07:29:50.123Z,36.22
2022-12-25T07:34:52.588Z,24.08
2022-12-25T07:39:54.994Z,22.33
2022-12-25T07:44:57.422Z,19.55
2022-12-25T07:49:59.935Z,23.27
2022-12-25T07:55:03.206Z,19.08
2022-12-25T08:00:07.018Z,41.95
2022-12-25T08:05:09.698Z,25.87
2022-12-25T08:10:12.336Z,17.52
2022-12-25T08:15:14.744Z,26.37
2022-12-25T08:20:17.281Z,29.80
2022-12-25T08:25:19.775Z,46.55
2022-12-25T08:30:22.331Z,34.20
2022-12-25T08:35:26.313Z,29.88
2022-12-25T08:40:28.943Z,31.40
2022-12-25T08:45:35.172Z,24.50
2022-12-25T08:50:38.066Z,28.20
2022-12-25T08:55:40.762Z,27.60
2022-12-25T09:00:43.452Z,22.80
2022-12-25T09:05:45.851Z,20.92
2022-12-25T09:10:48.922Z,22.05
2022-12-25T09:15:51.417Z,29.77
2022-12-25T09:21:08.137Z,23.70
2022-12-25T09:26:14.321Z,24.30
2022-12-25T09:31:16.828Z,19.88
2022-12-25T09:36:21.495Z,18.33
2022-12-25T09:41:35.269Z,18.27
2022-12-25T09:46:51.867Z,26.40
2022-12-25T09:52:00.256Z,17.80
2022-12-25T09:57:03.261Z,14.13
2022-12-25T10:02:24.376Z,16.20
2022-12-25T10:08:05.100Z,27.23
2022-12-25T10:13:19.332Z,20.07
2022-12-25T10:19:10.651Z,24.15
2022-12-25T10:24:30.812Z,17.58
2022-12-25T10:29:35.047Z,18.92
2022-12-25T10:34:42.642Z,19.55
2022-12-25T10:39:46.870Z,14.67
2022-12-25T10:44:59.326Z,22.63
2022-12-25T10:50:11.850Z,19.25
2022-12-25T10:55:21.441Z,22.05
2022-12-25T11:00:30.140Z,20.70
2022-12-25T11:05:34.671Z,22.87
2022-12-25T11:10:42.695Z,18.63
2022-12-25T11:16:02.761Z,19.90
2022-12-25T11:21:17.822Z,20.67
2022-12-25T11:26:20.207Z,28.42
2022-12-25T11:31:30.228Z,22.47
2022-12-25T11:36:48.640Z,22.73
2022-12-25T11:42:13.660Z,23.08
2022-12-25T11:47:37.259Z,20.35
2022-12-25T11:52:41.199Z,23.55
2022-12-25T11:57:46.089Z,26.20
2022-12-25T12:02:58.857Z,24.92
2022-12-25T12:08:04.074Z,22.70
2022-12-25T12:13:12.132Z,26.33
2022-12-25T12:18:29.124Z,24.13
2022-12-25T12:23:56.528Z,18.50
2022-12-25T12:29:01.010Z,19.10
2022-12-25T12:34:03.517Z,21.45
2022-12-25T12:39:06.220Z,23.60
2022-12-25T12:44:12.000Z,23.58
2022-12-25T12:49:29.045Z,16.10
2022-12-25T12:54:31.577Z,21.90
2022-12-25T12:59:43.581Z,20.48
2022-12-25T13:05:06.232Z,18.57
2022-12-25T13:10:31.555Z,18.60
2022-12-25T13:15:35.611Z,21.93
2022-12-25T13:20:55.100Z,23.35
2022-12-25T13:26:00.892Z,22.25
2022-12-25T13:31:06.827Z,19.63
2022-12-25T13:36:13.592Z,20.45
2022-12-25T13:41:54.215Z,20.37
2022-12-25T13:46:56.820Z,18.70
2022-12-25T13:52:13.844Z,19.88
2022-12-25T13:57:18.245Z,19.30
2022-12-25T14:02:23.720Z,17.05
2022-12-25T14:07:26.371Z,20.43
2022-12-25T14:12:30.632Z,23.10
2022-12-25T14:17:35.572Z,22.35
2022-12-25T14:22:41.725Z,97.55
2022-12-25T14:27:49.670Z,25.83
2022-12-25T14:32:55.394Z,25.70
2022-12-25T14:38:11.289Z,28.73
2022-12-25T14:43:28.255Z,29.42
2022-12-25T14:48:33.381Z,22.70
2022-12-25T14:53:50.160Z,25.35
2022-12-25T14:59:00.774Z,26.63
2022-12-25T15:04:18.622Z,20.42
2022-12-25T15:09:21.275Z,19.98
2022-12-25T15:14:26.895Z,16.95
2022-12-25T15:19:37.665Z,19.20
2022-12-25T15:24:42.647Z,18.17
2022-12-25T15:35:18.224Z,26.63
2022-12-25T15:40:21.491Z,39.60
2022-12-25T15:45:26.868Z,26.73
2022-12-25T15:50:30.235Z,21.73
2022-12-25T15:55:33.232Z,27.10
2022-12-25T16:00:35.942Z,26.48
2022-12-25T16:05:38.411Z,47.42
2022-12-25T16:10:40.870Z,27.98
2022-12-25T16:15:45.749Z,44.40
2022-12-25T16:20:48.616Z,26.75
2022-12-25T16:25:56.189Z,25.88
2022-12-25T16:30:58.706Z,19.85
2022-12-25T16:36:11.383Z,24.73
2022-12-25T16:41:14.273Z,21.83
2022-12-25T16:46:19.146Z,24.33
2022-12-25T16:51:22.106Z,23.17
2022-12-25T16:56:28.625Z,23.00
2022-12-25T17:01:31.395Z,22.38
2022-12-25T17:06:33.951Z,29.70
2022-12-25T17:11:40.866Z,22.08
2022-12-25T17:16:43.654Z,30.48
2022-12-25T17:21:46.496Z,26.90
2022-12-25T17:26:49.076Z,21.77
2022-12-25T17:31:54.028Z,22.47
2022-12-25T17:36:59.250Z,24.02
2022-12-25T17:42:01.677Z,24.30
2022-12-25T17:47:04.285Z,20.65
2022-12-25T17:52:06.873Z,22.27
2022-12-25T17:57:09.379Z,17.53
2022-12-25T18:02:12.149Z,19.80
2022-12-25T18:07:15.410Z,17.73
2022-12-25T18:12:17.894Z,20.63
2022-12-25T18:17:20.325Z,20.35
2022-12-25T18:22:22.872Z,14.90
2022-12-25T18:27:28.255Z,15.55
2022-12-25T18:32:32.892Z,21.05
2022-12-25T18:37:39.949Z,18.20
2022-12-25T18:42:43.451Z,16.02
2022-12-25T18:47:45.956Z,17.37
2022-12-25T18:52:51.675Z,13.00
2022-12-25T18:57:55.008Z,13.80
2022-12-25T19:02:59.321Z,14.63
2022-12-25T19:08:01.984Z,14.75
2022-12-25T19:13:08.046Z,13.03
2022-12-25T19:18:11.708Z,17.35
2022-12-25T19:23:14.180Z,14.07
2022-12-25T19:28:17.908Z,10.68
2022-12-25T19:33:21.108Z,17.95
2022-12-25T19:38:23.586Z,15.70
2022-12-25T19:43:35.987Z,16.48
2022-12-25T19:48:38.471Z,14.18
2022-12-25T19:53:40.883Z,15.18
2022-12-25T19:58:43.946Z,9.30
2022-12-25T20:03:47.143Z,13.93
2022-12-25T20:08:53.525Z,10.07
2022-12-25T20:13:56.356Z,26.15
2022-12-25T20:18:59.247Z,16.85
2022-12-25T20:24:01.633Z,12.00
2022-12-25T20:29:04.376Z,13.63
2022-12-25T20:34:10.348Z,16.45
2022-12-25T20:39:13.921Z,13.13
2022-12-25T20:44:16.390Z,11.05
2022-12-25T20:49:27.896Z,13.40
2022-12-25T20:54:31.549Z,14.03
2022-12-25T20:59:37.754Z,13.30
2022-12-25T21:04:40.634Z,11.68
2022-12-25T21:09:43.186Z,9.93
2022-12-25T21:14:45.815Z,7.95
2022-12-25T21:19:48.223Z,6.43
2022-12-25T21:24:52.409Z,10.80
2022-12-25T21:29:54.853Z,12.65
2022-12-25T21:34:57.309Z,13.07
2022-12-25T21:40:00.369Z,11.75
2022-12-25T21:45:02.984Z,14.27
2022-12-25T21:50:24.262Z,6.65
2022-12-25T21:55:28.449Z,10.63
2022-12-25T22:00:30.976Z,9.98
2022-12-25T22:05:52.045Z,10.15
2022-12-25T22:10:54.478Z,10.80
2022-12-25T22:16:23.388Z,10.98
2022-12-25T22:21:25.867Z,8.23
2022-12-25T22:26:28.345Z,10.45
2022-12-25T22:31:30.782Z,9.63
2022-12-25T22:36:33.295Z,1.40
2022-12-25T22:41:35.843Z,7.85
2022-12-25T22:46:38.555Z,4.30
2022-12-25T22:51:40.993Z,1.67
2022-12-25T22:56:45.030Z,1.95
2022-12-25T23:01:47.688Z,0.60
2022-12-25T23:06:50.591Z,0.60
2022-12-25T23:11:53.696Z,0.90
2022-12-25T23:16:56.445Z,0.60
2022-12-25T23:22:18.140Z,0.50
2022-12-25T23:27:20.743Z,1.20
2022-12-25T23:32:25.448Z,8.38
2022-12-25T23:37:27.962Z,0.95
2022-12-25T23:42:33.474Z,0.50
2022-12-25T23:47:35.937Z,0.60
2022-12-25T23:52:38.464Z,0.90
2022-12-25T23:57:40.994Z,0.70
